KMHV/MHV METAR and TAF weather

Enter ICAO airport designator
Station Type Date Time Source
KMHV METAR 2018/12/15 23:40 UTC NOAA

KMHV 152340Z AUTO 00000KT 10SM CLR 14/M07 A3013 RMK A01


Station Type Date Time Source
KMHV Decoded METAR 2018/12/15 23:40 UTC NOAA

Mojave, CA, United States (KMHV) 35-04N 118-09W
Dec 15, 2018 - 06:40 PM EST / 2018.12.15 2340 UTC
Wind: Calm:0
Visibility: 10 mile(s):0
Sky conditions: clear
Temperature: 57 F (14 C)
Dew Point: 19 F (-7 C)
Relative Humidity: 22%
Pressure (altimeter): 30.13 in. Hg (1020 hPa)
ob: KMHV 152340Z AUTO 00000KT 10SM CLR 14/M07 A3013 RMK A01
cycle: 23

Station Type Date Time Source
KMHV TAF UTC NOAA

Error!


Example: see airport list